Archival Weather

Prince Abdulmajeed Bin Abdula

Prince Abdulmajeed Bin Abdula, Saudi Arabia (OEAO)

Report from: Monday, May 23, 2022 2:00 AM UTC
Current time: Tuesday, August 16, 2022 7:44 AM UTC

Current weather
Weather history
Weather forecast

Temperature26.0°C (78.8°F)
Dew point-7.0°C (19.4°F)
Winds 6 kts (3.1 m/s, 6.9 mph) West-Southwest (250°)
Clouds Sky clear
Altimeter29.83 in.Hg (1010 mB)
Relative humidity11 %
Density altitude1,446 ft. (441 m)
Remarks Ceiling and visibility OK
No significant changes expected in the next two hours
Flight conditions Visual Meteorological Conditions
Raw dataOEAO 230200Z 25006KT CAVOK 26/M07 Q1010 NOSIG
An error has occurred. This application may no longer respond until reloaded. Reload 🗙